MSC Preziosa — 3FOA6 — position and weather

sailwx.info

Track history (hours):
 
Tides and Currents Weather Stations Pressure Air Temp Water Temp Dewpoint Dewpoint Depression Visibility Wind Speed Wind Dir Waves Ship Positions

MSC Preziosa

Last reported at 2018-May-23 10:28 UTC. Time now 2018-May-23 10:48 UTC.
Position N 59°57' E 030°12'.

Length 333 m; draft 8.7 m.

Type: Ship. MMSI: 371861000.

Date/timePositionNaut miles runAvg speedWind from/ knotsBaromVisibWave heightAir tempDewpointWater temp
2018-May-23 10:28N 59°57' E 030°12'0 0.0
2018-May-23 09:58N 59°57' E 030°12'0 0.0
2018-May-23 09:25N 59°57' E 030°12'0 0.0
2018-May-23 08:51N 59°57' E 030°12'0 0.0
2018-May-23 08:30N 59°57' E 030°12'0 0.0
2018-May-23 07:45N 59°57' E 030°12'0 0.0
2018-May-23 07:30N 59°57' E 030°12'0 0.0
2018-May-23 06:59N 59°57' E 030°12'0 0.0
2018-May-23 06:25N 59°57' E 030°12'0 0.0
2018-May-23 05:59N 59°57' E 030°12'0 0.0
2018-May-23 05:27N 59°57' E 030°12'0 0.0
2018-May-23 04:59N 59°57' E 030°12'0 0.0
2018-May-23 04:30N 59°57' E 030°12'0 0.0
2018-May-23 04:00N 59°57' E 030°12'0 0.4
2018-May-23 03:28N 59°57' E 030°11'4 8.2
2018-May-23 03:00N 59°56' E 030°04'5 9.4
2018-May-23 02:30N 59°56' E 029°54'5 9.7
2018-May-23 02:00N 59°59' E 029°46'5 9.9
2018-May-23 01:30N 60°00' E 029°37'611.0
2018-May-23 01:00N 60°02' E 029°26'612.3
2018-May-23 00:30N 60°02' E 029°14'713.9
2018-May-22 23:59N 60°02' E 028°59'917.9
2018-May-22 23:30N 60°02' E 028°42'918.3
2018-May-22 23:00N 60°04' E 028°24'918.4
2018-May-22 22:30N 60°08' E 028°08'918.5
2018-May-22 22:00N 60°11' E 027°50'918.2
2018-May-22 21:30N 60°07' E 027°33'918.8
2018-May-22 21:00N 60°02' E 027°17'918.4
2018-May-22 20:30N 59°58' E 027°01'1019.3
2018-May-22 20:00N 59°59' E 026°41'1119.9
2018-May-22 19:26N 59°57' E 026°20'1720.0
2018-May-22 18:35N 59°52' E 025°47'220.1
2018-May-22 18:29N 59°51' E 025°43'919.8
2018-May-22 18:00N 59°49' E 025°25'1019.5
2018-May-22 17:30N 59°46' E 025°07'1019.9
2018-May-22 17:00N 59°42' E 024°48'815.9
2018-May-22 16:30N 59°35' E 024°42'714.7
2018-May-22 16:00N 59°28' E 024°46'1 1.1
2018-May-22 15:28N 59°27' E 024°46'0 0.0
2018-May-22 14:55N 59°27' E 024°46'0 0.0
2018-May-22 14:30N 59°27' E 024°46'0 0.0
2018-May-22 14:00N 59°27' E 024°46'0 0.0
2018-May-22 13:30N 59°27' E 024°46'0 0.0
2018-May-22 12:58N 59°27' E 024°46'0 0.0
2018-May-22 12:28N 59°27' E 024°46'0 0.0
2018-May-22 12:00N 59°27' E 024°46'0 0.0
2018-May-22 11:29N 59°27' E 024°46'0 0.0
2018-May-22 10:53N 59°27' E 024°46'0 0.0
2018-May-22 10:22N 59°27' E 024°46'0 0.0
2018-May-22 09:58N 59°27' E 024°46'0 0.0
2018-May-22 09:30N 59°27' E 024°46'0 0.0
2018-May-22 08:59N 59°27' E 024°46'0 0.3
2018-May-22 08:30N 59°27' E 024°46'4 7.1
2018-May-22 08:00N 59°31' E 024°44'715.0
2018-May-22 07:31N 59°37' E 024°37'918.1
2018-May-22 07:01N 59°38' E 024°19'1020.1
2018-May-22 06:30N 59°35' E 023°60'1020.2
2018-May-22 06:00N 59°32' E 023°41'1020.3
2018-May-22 05:30N 59°29' E 023°22'1020.3
2018-May-22 05:01N 59°25' E 023°03'1020.1
2018-May-22 04:31N 59°22' E 022°44'1020.0
2018-May-22 04:00N 59°19' E 022°26'23119.7
2018-May-21 16:18N 56°26' E 017°38'919.6
2018-May-21 15:51N 56°21' E 017°26'719.6
2018-May-21 15:31N 56°17' E 017°16'1019.4
2018-May-21 14:59N 56°10' E 017°02'919.4
2018-May-21 14:30N 56°04' E 016°49'1019.4
2018-May-21 14:00N 55°59' E 016°34'1019.6
2018-May-21 13:31N 55°55' E 016°19'1019.5
2018-May-21 13:01N 55°50' E 016°04'1019.6
2018-May-21 12:31N 55°45' E 015°48'1019.7
2018-May-21 12:01N 55°41' E 015°33'1019.8
2018-May-21 11:30N 55°35' E 015°18'1019.7
2018-May-21 11:00N 55°30' E 015°03'1019.8
2018-May-21 10:31N 55°26' E 014°48'1019.3
2018-May-21 10:00N 55°20' E 014°34'919.1
2018-May-21 09:31N 55°13' E 014°24'1019.4
2018-May-21 09:01N 55°05' E 014°14'918.4
2018-May-21 08:30N 54°59' E 014°01'1019.3
2018-May-21 08:00N 54°57' E 013°45'1019.3
2018-May-21 07:31N 54°54' E 013°29'1019.1
2018-May-21 06:59N 54°50' E 013°12'918.7
2018-May-21 06:31N 54°47' E 012°58'918.0
2018-May-21 06:00N 54°44' E 012°43'917.8
2018-May-21 05:30N 54°40' E 012°30'917.4
2018-May-21 05:00N 54°34' E 012°18'917.8
2018-May-21 04:31N 54°26' E 012°13'917.2
2018-May-21 04:01N 54°24' E 011°58'917.9
2018-May-21 03:30N 54°26' E 011°43'918.4
2018-May-21 03:01N 54°30' E 011°29'917.9
2018-May-21 02:31N 54°34' E 011°15'917.7
2018-May-21 02:01N 54°38' E 011°01'917.7
2018-May-21 01:31N 54°42' E 010°48'816.8
2018-May-21 01:01N 54°50' E 010°50'816.2
2018-May-21 00:30N 54°57' E 010°55'816.9
2018-May-21 00:00N 55°05' E 011°02'817.0
2018-May-20 23:31N 55°13' E 011°06'1417.7
2018-May-20 22:42N 55°26' E 010°57'518.3
2018-May-20 22:24N 55°31' E 010°52'817.7
2018-May-20 21:56N 55°39' E 010°46'1118.0
2018-May-20 21:19N 55°50' E 010°49'517.5
2018-May-20 21:00N 55°54' E 010°55'1117.9
2018-May-20 20:23N 56°04' E 011°06'718.2
2018-May-20 20:01N 56°09' E 011°13'917.9
2018-May-20 19:31N 56°10' E 011°29'1019.1
2018-May-20 19:01N 56°09' E 011°46'1019.4
2018-May-20 18:31N 56°11' E 012°03'1019.0
2018-May-20 18:01N 56°12' E 012°20'918.7
2018-May-20 17:31N 56°06' E 012°34'816.5
2018-May-20 17:01N 55°59' E 012°42'917.1
2018-May-20 16:30N 55°51' E 012°45'815.2
2018-May-20 16:01N 55°44' E 012°40'1 2.6
2018-May-20 15:29N 55°43' E 012°38'0 0.0
2018-May-20 14:59N 55°43' E 012°38'0 0.0
2018-May-20 14:29N 55°43' E 012°38'0 0.0
2018-May-20 13:59N 55°43' E 012°38'0 0.0
2018-May-20 13:29N 55°43' E 012°38'0 0.0
2018-May-20 12:59N 55°43' E 012°38'0 0.0
2018-May-20 12:28N 55°43' E 012°38'0 0.0
2018-May-20 11:58N 55°43' E 012°38'0 0.0
2018-May-20 11:28N 55°43' E 012°38'0 0.0
2018-May-20 10:58N 55°43' E 012°38'0 0.0
2018-May-20 10:28N 55°43' E 012°38'0 0.0
2018-May-20 09:58N 55°43' E 012°38'0 0.0
2018-May-20 09:28N 55°43' E 012°38'0 0.0
2018-May-20 08:58N 55°43' E 012°38'0 0.0
2018-May-20 08:28N 55°43' E 012°38'0 0.0
2018-May-20 08:00N 55°43' E 012°38'0 0.0
2018-May-20 07:29N 55°43' E 012°38'0 0.0
2018-May-20 06:59N 55°43' E 012°38'0 0.0
2018-May-20 06:28N 55°43' E 012°38'0 0.0
2018-May-20 06:00N 55°43' E 012°38'1 1.4
2018-May-20 05:30N 55°43' E 012°39'510.0
2018-May-20 05:00N 55°48' E 012°42'713.8
2018-May-20 04:31N 55°55' E 012°38'815.3
2018-May-20 04:00N 56°02' E 012°39'815.2
2018-May-20 03:30N 56°08' E 012°29'815.4
2018-May-20 03:00N 56°11' E 012°17'815.6
2018-May-20 02:28N 56°11' E 012°02'815.9
2018-May-20 01:59N 56°09' E 011°49'816.5
2018-May-20 01:31N 56°08' E 011°35'917.5
2018-May-20 01:01N 56°08' E 011°19'816.0
2018-May-20 00:30N 56°03' E 011°07'3816.2
2018-May-19 22:10N 55°26' E 010°59'318.3
2018-May-19 22:01N 55°23' E 011°02'1118.4
2018-May-19 21:23N 55°12' E 011°06'718.6
2018-May-19 21:01N 55°05' E 011°03'918.1
2018-May-19 20:31N 54°57' E 010°54'918.1
2018-May-19 20:01N 54°48' E 010°50'917.6
2018-May-19 19:31N 54°40' E 010°46'917.2
2018-May-19 19:01N 54°34' E 010°36'816.7
2018-May-19 18:31N 54°31' E 010°22'612.5
2018-May-19 18:00N 54°26' E 010°14'510.6
2018-May-19 17:30N 54°22' E 010°10'4 0.3
2018-May-19 04:30N 54°26' E 010°13'910.7
2018-May-19 03:39N 54°32' E 010°24'211.5
2018-May-19 03:30N 54°33' E 010°27'714.1
2018-May-19 02:59N 54°36' E 010°38'714.5
2018-May-19 02:31N 54°41' E 010°46'714.7
2018-May-19 02:00N 54°48' E 010°50'613.0
2018-May-19 01:30N 54°55' E 010°52'714.6
2018-May-19 01:01N 55°01' E 010°59'815.2
2018-May-19 00:30N 55°08' E 011°02'714.3
2018-May-19 00:01N 55°15' E 011°05'815.2
2018-May-18 23:30N 55°22' E 011°01'2815.2
2018-May-18 21:39N 55°50' E 010°48'516.0
2018-May-18 21:21N 55°53' E 010°54'816.0
2018-May-18 20:51N 55°60' E 011°02'616.1
2018-May-18 20:30N 56°05' E 011°07'815.8
2018-May-18 20:00N 56°11' E 011°16'1416.2
2018-May-18 19:07N 56°23' E 011°29'216.1
2018-May-18 18:58N 56°25' E 011°31'816.4
2018-May-18 18:28N 56°32' E 011°39'1216.2
2018-May-18 17:44N 56°43' E 011°49'615.2
2018-May-18 17:21N 56°49' E 011°50'616.3
2018-May-18 16:58N 56°55' E 011°46'817.9
2018-May-18 16:30N 57°02' E 011°41'918.8
2018-May-18 16:01N 57°11' E 011°34'918.8
2018-May-18 15:31N 57°20' E 011°28'918.7
2018-May-18 15:00N 57°28' E 011°21'918.6
2018-May-18 14:30N 57°35' E 011°08'918.5
2018-May-18 14:00N 57°41' E 010°57'918.1
2018-May-18 13:30N 57°47' E 010°43'918.2
2018-May-18 13:01N 57°47' E 010°26'1019.7
2018-May-18 12:31N 57°47' E 010°08'1019.8
2018-May-18 12:00N 57°47' E 009°49'1019.4
2018-May-18 11:30N 57°46' E 009°31'1019.3
2018-May-18 10:59N 57°45' E 009°12'1019.5
2018-May-18 10:28N 57°43' E 008°53'4718.1
2018-May-18 07:52N 57°41' E 007°25'717.6
2018-May-18 07:30N 57°41' E 007°13'816.7
2018-May-18 07:00N 57°42' E 006°58'816.9
2018-May-18 06:30N 57°43' E 006°42'917.6
2018-May-18 06:00N 57°46' E 006°27'918.5
2018-May-18 05:30N 57°52' E 006°13'918.9
2018-May-18 05:00N 57°58' E 006°00'1018.9
2018-May-18 04:29N 58°05' E 005°46'919.0
2018-May-18 04:01N 58°11' E 005°34'1019.0
2018-May-18 03:30N 58°17' E 005°20'918.8
2018-May-18 03:00N 58°23' E 005°07'919.2
2018-May-18 02:30N 58°30' E 004°54'1018.5
2018-May-18 01:59N 58°38' E 004°42'1118.3
2018-May-18 01:23N 58°46' E 004°28'10917.6
2018-May-17 19:10N 60°35' E 004°22'319.0
2018-May-17 19:00N 60°38' E 004°26'918.3
2018-May-17 18:29N 60°44' E 004°39'510.8
2018-May-17 17:59N 60°42' E 004°49'714.3
2018-May-17 17:29N 60°35' E 004°54'714.0
2018-May-17 16:58N 60°29' E 004°60'612.1
2018-May-17 16:30N 60°24' E 005°07'4 8.6
2018-May-17 16:00N 60°24' E 005°16'2 3.0
2018-May-17 15:28N 60°23' E 005°18'0 0.0
2018-May-17 14:58N 60°23' E 005°18'0 0.0
2018-May-17 14:28N 60°23' E 005°18'0 0.0
2018-May-17 13:58N 60°23' E 005°18'0 0.0
2018-May-17 13:28N 60°23' E 005°18'0 0.0
2018-May-17 12:58N 60°23' E 005°18'0 0.0
2018-May-17 12:28N 60°23' E 005°18'0 0.0
2018-May-17 11:58N 60°23' E 005°18'0 0.0
2018-May-17 11:28N 60°23' E 005°18'0 0.0
2018-May-17 10:58N 60°23' E 005°18'0 0.0
2018-May-17 10:28N 60°23' E 005°18'0 0.0
2018-May-17 09:58N 60°23' E 005°18'0 0.0
2018-May-17 09:28N 60°23' E 005°18'0 0.0
2018-May-17 08:58N 60°23' E 005°18'0 0.0
2018-May-17 08:28N 60°23' E 005°18'0 0.0
2018-May-17 07:58N 60°23' E 005°18'0 0.0
2018-May-17 07:28N 60°23' E 005°18'0 0.0
2018-May-17 06:58N 60°23' E 005°18'0 0.0
2018-May-17 06:28N 60°23' E 005°18'0 0.0
2018-May-17 05:59N 60°23' E 005°18'0 0.1
2018-May-17 05:30N 60°24' E 005°18'2 3.5
2018-May-17 05:00N 60°24' E 005°15'4 8.6
2018-May-17 04:30N 60°24' E 005°06'5 9.7
2018-May-17 04:00N 60°28' E 004°60'510.4
2018-May-17 03:30N 60°33' E 004°56'510.7
2018-May-17 03:00N 60°38' E 004°52'610.8
2018-May-17 02:29N 60°43' E 004°48'511.2
2018-May-17 02:00N 60°48' E 004°43'611.4
2018-May-17 01:30N 60°54' E 004°40'613.0
2018-May-17 01:00N 60°59' E 004°46'714.1
2018-May-17 00:30N 61°03' E 004°58'713.3
2018-May-17 00:00N 61°06' E 005°11'612.2
2018-May-16 23:30N 61°04' E 005°23'611.4
2018-May-16 23:00N 61°06' E 005°34'4 8.3
2018-May-16 22:30N 61°08' E 005°42'5 9.2
2018-May-16 21:59N 61°08' E 005°51'611.8
2018-May-16 21:30N 61°08' E 006°03'611.7
2018-May-16 21:00N 61°07' E 006°15'611.1
2018-May-16 20:30N 61°06' E 006°27'611.4
2018-May-16 20:00N 61°10' E 006°35'510.7
2018-May-16 19:30N 61°10' E 006°46'510.7
2018-May-16 19:00N 61°07' E 006°55'611.1
2018-May-16 18:30N 61°02' E 007°02'611.5
2018-May-16 18:00N 60°57' E 007°07'5 9.2
2018-May-16 17:30N 60°53' E 007°08'1 2.2
2018-May-16 16:59N 60°52' E 007°07'0 0.0
2018-May-16 16:29N 60°52' E 007°07'0 0.0
2018-May-16 15:59N 60°52' E 007°07'0 0.0
2018-May-16 15:29N 60°52' E 007°07'0 0.0
2018-May-16 14:59N 60°52' E 007°07'0 0.0
2018-May-16 14:29N 60°52' E 007°07'0 0.0
2018-May-16 13:59N 60°52' E 007°07'0 0.0
2018-May-16 13:26N 60°52' E 007°07'0 0.0
2018-May-16 12:59N 60°52' E 007°07'0 0.0
2018-May-16 12:29N 60°52' E 007°07'0 0.0
2018-May-16 11:59N 60°52' E 007°07'0 0.0
2018-May-16 11:29N 60°52' E 007°07'0 0.0
2018-May-16 10:59N 60°52' E 007°07'0 0.0
2018-May-16 10:29N 60°52' E 007°07'0 0.0
2018-May-16 09:59N 60°52' E 007°07'0 0.0
2018-May-16 09:29N 60°52' E 007°07'0 0.0
2018-May-16 08:59N 60°52' E 007°07'0 0.0
2018-May-16 08:29N 60°52' E 007°07'0 0.0
2018-May-16 07:59N 60°52' E 007°07'0 0.0
2018-May-16 07:29N 60°52' E 007°07'0 0.0
2018-May-16 06:59N 60°52' E 007°07'0 0.0
2018-May-16 06:29N 60°52' E 007°07'0 0.0
2018-May-16 05:59N 60°52' E 007°07'0 0.9
2018-May-16 05:29N 60°52' E 007°08'510.2
2018-May-16 04:59N 60°57' E 007°07'612.6
2018-May-16 04:30N 61°03' E 007°02'815.6
2018-May-16 04:00N 61°09' E 006°52'815.6
2018-May-16 03:30N 61°10' E 006°36'815.6
2018-May-16 03:00N 61°06' E 006°23'1020.1
2018-May-16 02:30N 61°08' E 006°02'1019.5
2018-May-16 01:59N 61°07' E 005°42'1019.3
2018-May-16 01:29N 61°04' E 005°24'1018.7
2018-May-16 00:58N 61°09' E 005°07'713.9
2018-May-16 00:30N 61°13' E 004°57'918.9
2018-May-16 00:00N 61°15' E 004°37'918.7
2018-May-15 23:30N 61°19' E 004°21'1418.9
2018-May-15 22:46N 61°33' E 004°21'519.3
2018-May-15 22:30N 61°38' E 004°24'1019.3
2018-May-15 22:00N 61°48' E 004°30'1019.1
2018-May-15 21:30N 61°57' E 004°36'918.8
2018-May-15 21:00N 62°06' E 004°43'918.9
2018-May-15 20:30N 62°14' E 004°51'1019.0
2018-May-15 20:00N 62°20' E 005°07'918.5
2018-May-15 19:29N 62°25' E 005°24'918.9
2018-May-15 19:00N 62°27' E 005°43'1018.1
2018-May-15 18:28N 62°24' E 006°04'818.0
2018-May-15 18:00N 62°24' E 006°22'918.9
2018-May-15 17:30N 62°27' E 006°41'815.9
2018-May-15 17:00N 62°23' E 006°55'917.2
2018-May-15 16:29N 62°15' E 007°01'816.4
2018-May-15 16:00N 62°07' E 006°57'5 9.2
2018-May-15 15:30N 62°07' E 007°07'2 4.6
2018-May-15 15:00N 62°06' E 007°12'0 0.0
2018-May-15 14:30N 62°06' E 007°12'0 0.0
2018-May-15 14:00N 62°06' E 007°12'0 0.0
2018-May-15 13:30N 62°06' E 007°12'0 0.0
2018-May-15 13:00N 62°06' E 007°12'0 0.0
2018-May-15 12:30N 62°06' E 007°12'0 0.0
2018-May-15 12:00N 62°06' E 007°12'0 0.0
2018-May-15 11:30N 62°06' E 007°12'0 0.0
2018-May-15 11:00N 62°06' E 007°12'0 0.0
2018-May-15 10:30N 62°06' E 007°12'0 0.0
2018-May-15 10:00N 62°06' E 007°12'0 0.0
2018-May-15 09:30N 62°06' E 007°12'0 0.0
2018-May-15 09:00N 62°06' E 007°12'0 0.0
2018-May-15 08:30N 62°06' E 007°12'0 0.0
2018-May-15 08:00N 62°06' E 007°12'0 0.0
2018-May-15 07:30N 62°06' E 007°12'0 0.0
2018-May-15 07:00N 62°06' E 007°12'0 0.1
2018-May-15 06:30N 62°06' E 007°12'0 0.1
2018-May-15 06:00N 62°06' E 007°12'0 0.0
2018-May-15 05:30N 62°06' E 007°12'1 1.2
2018-May-15 05:00N 62°07' E 007°11'510.9
2018-May-15 04:31N 62°06' E 006°60'611.6
2018-May-15 04:00N 62°12' E 007°02'713.7
2018-May-15 03:29N 62°19' E 006°59'714.2
2018-May-15 03:00N 62°25' E 006°55'714.3
2018-May-15 02:30N 62°27' E 006°40'714.4
2018-May-15 02:00N 62°25' E 006°26'814.7
2018-May-15 01:29N 62°23' E 006°10'714.2
2018-May-15 00:59N 62°27' E 005°57'612.0
2018-May-15 00:30N 62°29' E 005°46'815.8
2018-May-15 00:00N 62°30' E 005°29'815.6
2018-May-14 23:30N 62°27' E 005°14'916.9
2018-May-14 23:00N 62°21' E 005°00'816.5
2018-May-14 22:30N 62°16' E 004°47'816.5
2018-May-14 22:00N 62°10' E 004°34'17818.1
2018-May-14 12:11N 59°13' E 004°11'419.1
2018-May-14 12:00N 59°09' E 004°11'1118.3
2018-May-14 11:24N 58°58' E 004°16'819.4
2018-May-14 11:00N 58°53' E 004°26'1019.3
2018-May-14 10:30N 58°46' E 004°39'1018.9
2018-May-14 10:00N 58°39' E 004°51'1019.2
2018-May-14 09:30N 58°32' E 005°04'1020.1
2018-May-14 09:00N 58°24' E 005°17'1020.7
2018-May-14 08:30N 58°18' E 005°31'1121.1
2018-May-14 08:00N 58°11' E 005°47'1120.8
2018-May-14 07:29N 58°04' E 006°02'1020.4
2018-May-14 07:00N 57°57' E 006°16'1020.4
2018-May-14 06:30N 57°50' E 006°30'1019.7
2018-May-14 06:00N 57°48' E 006°48'1020.8
2018-May-14 05:30N 57°47' E 007°08'1020.6
2018-May-14 05:00N 57°47' E 007°27'1020.2
2018-May-14 04:30N 57°47' E 007°46'1020.1
2018-May-14 04:00N 57°47' E 008°05'1020.0
2018-May-14 03:30N 57°48' E 008°23'1019.8
2018-May-14 03:00N 57°49' E 008°42'1019.6
2018-May-14 02:30N 57°49' E 009°00'4119.2
2018-May-14 00:22N 57°49' E 010°17'719.2
2018-May-14 00:00N 57°49' E 010°30'918.8
2018-May-13 23:30N 57°48' E 010°48'1019.3
2018-May-13 23:00N 57°41' E 011°00'1019.7
2018-May-13 22:30N 57°34' E 011°14'1019.4
2018-May-13 22:00N 57°27' E 011°27'1019.4
2018-May-13 21:30N 57°18' E 011°33'1019.4
2018-May-13 21:00N 57°09' E 011°39'1019.3
2018-May-13 20:30N 56°60' E 011°44'1019.1
2018-May-13 20:00N 56°51' E 011°50'4218.2
2018-May-13 17:43N 56°12' E 012°20'418.9
2018-May-13 17:29N 56°10' E 012°26'817.7
2018-May-13 17:00N 56°05' E 012°37'917.0
2018-May-13 16:30N 55°57' E 012°44'917.4
2018-May-13 16:00N 55°48' E 012°44'611.9
2018-May-13 15:30N 55°43' E 012°38'0 0.0
2018-May-13 15:00N 55°43' E 012°38'0 0.0
2018-May-13 14:29N 55°43' E 012°38'0 0.0
2018-May-13 14:00N 55°43' E 012°38'0 0.0
2018-May-13 13:29N 55°43' E 012°38'0 0.0
2018-May-13 12:59N 55°43' E 012°38'0 0.0
2018-May-13 12:29N 55°43' E 012°38'0 0.0
2018-May-13 11:59N 55°43' E 012°38'0 0.0
2018-May-13 11:30N 55°43' E 012°38'0 0.0
2018-May-13 10:58N 55°43' E 012°38'  
Track history (hours):
 
Tides and Currents Weather Stations Pressure Air Temp Water Temp Dewpoint Dewpoint Depression Visibility Wind Speed Wind Dir Waves Ship Positions

MSC Preziosa

Last reported at 2018-May-23 10:28 UTC. Time now 2018-May-23 10:48 UTC.
Position N 59°57' E 030°12'.

Length 333 m; draft 8.7 m.

Type: Ship. MMSI: 371861000.

Date/timePositionNaut miles runAvg speedWind from/ knotsBaromVisibWave heightAir tempDewpointWater temp
2018-May-23 10:28N 59°57' E 030°12'0 0.0
2018-May-23 09:58N 59°57' E 030°12'0 0.0
2018-May-23 09:25N 59°57' E 030°12'0 0.0
2018-May-23 08:51N 59°57' E 030°12'0 0.0
2018-May-23 08:30N 59°57' E 030°12'0 0.0
2018-May-23 07:45N 59°57' E 030°12'0 0.0
2018-May-23 07:30N 59°57' E 030°12'0 0.0
2018-May-23 06:59N 59°57' E 030°12'0 0.0
2018-May-23 06:25N 59°57' E 030°12'0 0.0
2018-May-23 05:59N 59°57' E 030°12'0 0.0
2018-May-23 05:27N 59°57' E 030°12'0 0.0
2018-May-23 04:59N 59°57' E 030°12'0 0.0
2018-May-23 04:30N 59°57' E 030°12'0 0.0
2018-May-23 04:00N 59°57' E 030°12'0 0.4
2018-May-23 03:28N 59°57' E 030°11'4 8.2
2018-May-23 03:00N 59°56' E 030°04'5 9.4
2018-May-23 02:30N 59°56' E 029°54'5 9.7
2018-May-23 02:00N 59°59' E 029°46'5 9.9
2018-May-23 01:30N 60°00' E 029°37'611.0
2018-May-23 01:00N 60°02' E 029°26'612.3
2018-May-23 00:30N 60°02' E 029°14'713.9
2018-May-22 23:59N 60°02' E 028°59'917.9
2018-May-22 23:30N 60°02' E 028°42'918.3
2018-May-22 23:00N 60°04' E 028°24'918.4
2018-May-22 22:30N 60°08' E 028°08'918.5
2018-May-22 22:00N 60°11' E 027°50'918.2
2018-May-22 21:30N 60°07' E 027°33'918.8
2018-May-22 21:00N 60°02' E 027°17'918.4
2018-May-22 20:30N 59°58' E 027°01'1019.3
2018-May-22 20:00N 59°59' E 026°41'1119.9
2018-May-22 19:26N 59°57' E 026°20'1720.0
2018-May-22 18:35N 59°52' E 025°47'220.1
2018-May-22 18:29N 59°51' E 025°43'919.8
2018-May-22 18:00N 59°49' E 025°25'1019.5
2018-May-22 17:30N 59°46' E 025°07'1019.9
2018-May-22 17:00N 59°42' E 024°48'815.9
2018-May-22 16:30N 59°35' E 024°42'714.7
2018-May-22 16:00N 59°28' E 024°46'1 1.1
2018-May-22 15:28N 59°27' E 024°46'0 0.0
2018-May-22 14:55N 59°27' E 024°46'0 0.0
2018-May-22 14:30N 59°27' E 024°46'0 0.0
2018-May-22 14:00N 59°27' E 024°46'0 0.0
2018-May-22 13:30N 59°27' E 024°46'0 0.0
2018-May-22 12:58N 59°27' E 024°46'0 0.0
2018-May-22 12:28N 59°27' E 024°46'0 0.0
2018-May-22 12:00N 59°27' E 024°46'0 0.0
2018-May-22 11:29N 59°27' E 024°46'0 0.0
2018-May-22 10:53N 59°27' E 024°46'0 0.0
2018-May-22 10:22N 59°27' E 024°46'0 0.0
2018-May-22 09:58N 59°27' E 024°46'0 0.0
2018-May-22 09:30N 59°27' E 024°46'0 0.0
2018-May-22 08:59N 59°27' E 024°46'0 0.3
2018-May-22 08:30N 59°27' E 024°46'4 7.1
2018-May-22 08:00N 59°31' E 024°44'715.0
2018-May-22 07:31N 59°37' E 024°37'918.1
2018-May-22 07:01N 59°38' E 024°19'1020.1
2018-May-22 06:30N 59°35' E 023°60'1020.2
2018-May-22 06:00N 59°32' E 023°41'1020.3
2018-May-22 05:30N 59°29' E 023°22'1020.3
2018-May-22 05:01N 59°25' E 023°03'1020.1
2018-May-22 04:31N 59°22' E 022°44'1020.0
2018-May-22 04:00N 59°19' E 022°26'23119.7
2018-May-21 16:18N 56°26' E 017°38'919.6
2018-May-21 15:51N 56°21' E 017°26'719.6
2018-May-21 15:31N 56°17' E 017°16'1019.4
2018-May-21 14:59N 56°10' E 017°02'919.4
2018-May-21 14:30N 56°04' E 016°49'1019.4
2018-May-21 14:00N 55°59' E 016°34'1019.6
2018-May-21 13:31N 55°55' E 016°19'1019.5
2018-May-21 13:01N 55°50' E 016°04'1019.6
2018-May-21 12:31N 55°45' E 015°48'1019.7
2018-May-21 12:01N 55°41' E 015°33'1019.8
2018-May-21 11:30N 55°35' E 015°18'1019.7
2018-May-21 11:00N 55°30' E 015°03'1019.8
2018-May-21 10:31N 55°26' E 014°48'1019.3
2018-May-21 10:00N 55°20' E 014°34'919.1
2018-May-21 09:31N 55°13' E 014°24'1019.4
2018-May-21 09:01N 55°05' E 014°14'918.4
2018-May-21 08:30N 54°59' E 014°01'1019.3
2018-May-21 08:00N 54°57' E 013°45'1019.3
2018-May-21 07:31N 54°54' E 013°29'1019.1
2018-May-21 06:59N 54°50' E 013°12'918.7
2018-May-21 06:31N 54°47' E 012°58'918.0
2018-May-21 06:00N 54°44' E 012°43'917.8
2018-May-21 05:30N 54°40' E 012°30'917.4
2018-May-21 05:00N 54°34' E 012°18'917.8
2018-May-21 04:31N 54°26' E 012°13'917.2
2018-May-21 04:01N 54°24' E 011°58'917.9
2018-May-21 03:30N 54°26' E 011°43'918.4
2018-May-21 03:01N 54°30' E 011°29'917.9
2018-May-21 02:31N 54°34' E 011°15'917.7
2018-May-21 02:01N 54°38' E 011°01'917.7
2018-May-21 01:31N 54°42' E 010°48'816.8
2018-May-21 01:01N 54°50' E 010°50'816.2
2018-May-21 00:30N 54°57' E 010°55'816.9
2018-May-21 00:00N 55°05' E 011°02'817.0
2018-May-20 23:31N 55°13' E 011°06'1417.7
2018-May-20 22:42N 55°26' E 010°57'518.3
2018-May-20 22:24N 55°31' E 010°52'817.7
2018-May-20 21:56N 55°39' E 010°46'1118.0
2018-May-20 21:19N 55°50' E 010°49'517.5
2018-May-20 21:00N 55°54' E 010°55'1117.9
2018-May-20 20:23N 56°04' E 011°06'718.2
2018-May-20 20:01N 56°09' E 011°13'917.9
2018-May-20 19:31N 56°10' E 011°29'1019.1
2018-May-20 19:01N 56°09' E 011°46'1019.4
2018-May-20 18:31N 56°11' E 012°03'1019.0
2018-May-20 18:01N 56°12' E 012°20'918.7
2018-May-20 17:31N 56°06' E 012°34'816.5
2018-May-20 17:01N 55°59' E 012°42'917.1
2018-May-20 16:30N 55°51' E 012°45'815.2
2018-May-20 16:01N 55°44' E 012°40'1 2.6
2018-May-20 15:29N 55°43' E 012°38'0 0.0
2018-May-20 14:59N 55°43' E 012°38'0 0.0
2018-May-20 14:29N 55°43' E 012°38'0 0.0
2018-May-20 13:59N 55°43' E 012°38'0 0.0
2018-May-20 13:29N 55°43' E 012°38'0 0.0
2018-May-20 12:59N 55°43' E 012°38'0 0.0
2018-May-20 12:28N 55°43' E 012°38'0 0.0
2018-May-20 11:58N 55°43' E 012°38'0 0.0
2018-May-20 11:28N 55°43' E 012°38'0 0.0
2018-May-20 10:58N 55°43' E 012°38'0 0.0
2018-May-20 10:28N 55°43' E 012°38'0 0.0
2018-May-20 09:58N 55°43' E 012°38'0 0.0
2018-May-20 09:28N 55°43' E 012°38'0 0.0
2018-May-20 08:58N 55°43' E 012°38'0 0.0
2018-May-20 08:28N 55°43' E 012°38'0 0.0
2018-May-20 08:00N 55°43' E 012°38'0 0.0
2018-May-20 07:29N 55°43' E 012°38'0 0.0
2018-May-20 06:59N 55°43' E 012°38'0 0.0
2018-May-20 06:28N 55°43' E 012°38'0 0.0
2018-May-20 06:00N 55°43' E 012°38'1 1.4
2018-May-20 05:30N 55°43' E 012°39'510.0
2018-May-20 05:00N 55°48' E 012°42'713.8
2018-May-20 04:31N 55°55' E 012°38'815.3
2018-May-20 04:00N 56°02' E 012°39'815.2
2018-May-20 03:30N 56°08' E 012°29'815.4
2018-May-20 03:00N 56°11' E 012°17'815.6
2018-May-20 02:28N 56°11' E 012°02'815.9
2018-May-20 01:59N 56°09' E 011°49'816.5
2018-May-20 01:31N 56°08' E 011°35'917.5
2018-May-20 01:01N 56°08' E 011°19'816.0
2018-May-20 00:30N 56°03' E 011°07'3816.2
2018-May-19 22:10N 55°26' E 010°59'318.3
2018-May-19 22:01N 55°23' E 011°02'1118.4
2018-May-19 21:23N 55°12' E 011°06'718.6
2018-May-19 21:01N 55°05' E 011°03'918.1
2018-May-19 20:31N 54°57' E 010°54'918.1
2018-May-19 20:01N 54°48' E 010°50'917.6
2018-May-19 19:31N 54°40' E 010°46'917.2
2018-May-19 19:01N 54°34' E 010°36'816.7
2018-May-19 18:31N 54°31' E 010°22'612.5
2018-May-19 18:00N 54°26' E 010°14'510.6
2018-May-19 17:30N 54°22' E 010°10'4 0.3
2018-May-19 04:30N 54°26' E 010°13'910.7
2018-May-19 03:39N 54°32' E 010°24'211.5
2018-May-19 03:30N 54°33' E 010°27'714.1
2018-May-19 02:59N 54°36' E 010°38'714.5
2018-May-19 02:31N 54°41' E 010°46'714.7
2018-May-19 02:00N 54°48' E 010°50'613.0
2018-May-19 01:30N 54°55' E 010°52'714.6
2018-May-19 01:01N 55°01' E 010°59'815.2
2018-May-19 00:30N 55°08' E 011°02'714.3
2018-May-19 00:01N 55°15' E 011°05'815.2
2018-May-18 23:30N 55°22' E 011°01'2815.2
2018-May-18 21:39N 55°50' E 010°48'516.0
2018-May-18 21:21N 55°53' E 010°54'816.0
2018-May-18 20:51N 55°60' E 011°02'616.1
2018-May-18 20:30N 56°05' E 011°07'815.8
2018-May-18 20:00N 56°11' E 011°16'1416.2
2018-May-18 19:07N 56°23' E 011°29'216.1
2018-May-18 18:58N 56°25' E 011°31'816.4
2018-May-18 18:28N 56°32' E 011°39'1216.2
2018-May-18 17:44N 56°43' E 011°49'615.2
2018-May-18 17:21N 56°49' E 011°50'616.3
2018-May-18 16:58N 56°55' E 011°46'817.9
2018-May-18 16:30N 57°02' E 011°41'918.8
2018-May-18 16:01N 57°11' E 011°34'918.8
2018-May-18 15:31N 57°20' E 011°28'918.7
2018-May-18 15:00N 57°28' E 011°21'918.6
2018-May-18 14:30N 57°35' E 011°08'918.5
2018-May-18 14:00N 57°41' E 010°57'918.1
2018-May-18 13:30N 57°47' E 010°43'918.2
2018-May-18 13:01N 57°47' E 010°26'1019.7
2018-May-18 12:31N 57°47' E 010°08'1019.8
2018-May-18 12:00N 57°47' E 009°49'1019.4
2018-May-18 11:30N 57°46' E 009°31'1019.3
2018-May-18 10:59N 57°45' E 009°12'1019.5
2018-May-18 10:28N 57°43' E 008°53'4718.1
2018-May-18 07:52N 57°41' E 007°25'717.6
2018-May-18 07:30N 57°41' E 007°13'816.7
2018-May-18 07:00N 57°42' E 006°58'816.9
2018-May-18 06:30N 57°43' E 006°42'917.6
2018-May-18 06:00N 57°46' E 006°27'918.5
2018-May-18 05:30N 57°52' E 006°13'918.9
2018-May-18 05:00N 57°58' E 006°00'1018.9
2018-May-18 04:29N 58°05' E 005°46'919.0
2018-May-18 04:01N 58°11' E 005°34'1019.0
2018-May-18 03:30N 58°17' E 005°20'918.8
2018-May-18 03:00N 58°23' E 005°07'919.2
2018-May-18 02:30N 58°30' E 004°54'1018.5
2018-May-18 01:59N 58°38' E 004°42'1118.3
2018-May-18 01:23N 58°46' E 004°28'10917.6
2018-May-17 19:10N 60°35' E 004°22'319.0
2018-May-17 19:00N 60°38' E 004°26'918.3
2018-May-17 18:29N 60°44' E 004°39'510.8
2018-May-17 17:59N 60°42' E 004°49'714.3
2018-May-17 17:29N 60°35' E 004°54'714.0
2018-May-17 16:58N 60°29' E 004°60'612.1
2018-May-17 16:30N 60°24' E 005°07'4 8.6
2018-May-17 16:00N 60°24' E 005°16'2 3.0
2018-May-17 15:28N 60°23' E 005°18'0 0.0
2018-May-17 14:58N 60°23' E 005°18'0 0.0
2018-May-17 14:28N 60°23' E 005°18'0 0.0
2018-May-17 13:58N 60°23' E 005°18'0 0.0
2018-May-17 13:28N 60°23' E 005°18'0 0.0
2018-May-17 12:58N 60°23' E 005°18'0 0.0
2018-May-17 12:28N 60°23' E 005°18'0 0.0
2018-May-17 11:58N 60°23' E 005°18'0 0.0
2018-May-17 11:28N 60°23' E 005°18'0 0.0
2018-May-17 10:58N 60°23' E 005°18'0 0.0
2018-May-17 10:28N 60°23' E 005°18'0 0.0
2018-May-17 09:58N 60°23' E 005°18'0 0.0
2018-May-17 09:28N 60°23' E 005°18'0 0.0
2018-May-17 08:58N 60°23' E 005°18'0 0.0
2018-May-17 08:28N 60°23' E 005°18'0 0.0
2018-May-17 07:58N 60°23' E 005°18'0 0.0
2018-May-17 07:28N 60°23' E 005°18'0 0.0
2018-May-17 06:58N 60°23' E 005°18'0 0.0
2018-May-17 06:28N 60°23' E 005°18'0 0.0
2018-May-17 05:59N 60°23' E 005°18'0 0.1
2018-May-17 05:30N 60°24' E 005°18'2 3.5
2018-May-17 05:00N 60°24' E 005°15'4 8.6
2018-May-17 04:30N 60°24' E 005°06'5 9.7
2018-May-17 04:00N 60°28' E 004°60'510.4
2018-May-17 03:30N 60°33' E 004°56'510.7
2018-May-17 03:00N 60°38' E 004°52'610.8
2018-May-17 02:29N 60°43' E 004°48'511.2
2018-May-17 02:00N 60°48' E 004°43'611.4
2018-May-17 01:30N 60°54' E 004°40'613.0
2018-May-17 01:00N 60°59' E 004°46'714.1
2018-May-17 00:30N 61°03' E 004°58'713.3
2018-May-17 00:00N 61°06' E 005°11'612.2
2018-May-16 23:30N 61°04' E 005°23'611.4
2018-May-16 23:00N 61°06' E 005°34'4 8.3
2018-May-16 22:30N 61°08' E 005°42'5 9.2
2018-May-16 21:59N 61°08' E 005°51'611.8
2018-May-16 21:30N 61°08' E 006°03'611.7
2018-May-16 21:00N 61°07' E 006°15'611.1
2018-May-16 20:30N 61°06' E 006°27'611.4
2018-May-16 20:00N 61°10' E 006°35'510.7
2018-May-16 19:30N 61°10' E 006°46'510.7
2018-May-16 19:00N 61°07' E 006°55'611.1
2018-May-16 18:30N 61°02' E 007°02'611.5
2018-May-16 18:00N 60°57' E 007°07'5 9.2
2018-May-16 17:30N 60°53' E 007°08'1 2.2
2018-May-16 16:59N 60°52' E 007°07'0 0.0
2018-May-16 16:29N 60°52' E 007°07'0 0.0
2018-May-16 15:59N 60°52' E 007°07'0 0.0
2018-May-16 15:29N 60°52' E 007°07'0 0.0
2018-May-16 14:59N 60°52' E 007°07'0 0.0
2018-May-16 14:29N 60°52' E 007°07'0 0.0
2018-May-16 13:59N 60°52' E 007°07'0 0.0
2018-May-16 13:26N 60°52' E 007°07'0 0.0
2018-May-16 12:59N 60°52' E 007°07'0 0.0
2018-May-16 12:29N 60°52' E 007°07'0 0.0
2018-May-16 11:59N 60°52' E 007°07'0 0.0
2018-May-16 11:29N 60°52' E 007°07'0 0.0
2018-May-16 10:59N 60°52' E 007°07'0 0.0
2018-May-16 10:29N 60°52' E 007°07'0 0.0
2018-May-16 09:59N 60°52' E 007°07'0 0.0
2018-May-16 09:29N 60°52' E 007°07'0 0.0
2018-May-16 08:59N 60°52' E 007°07'0 0.0
2018-May-16 08:29N 60°52' E 007°07'0 0.0
2018-May-16 07:59N 60°52' E 007°07'0 0.0
2018-May-16 07:29N 60°52' E 007°07'0 0.0
2018-May-16 06:59N 60°52' E 007°07'0 0.0
2018-May-16 06:29N 60°52' E 007°07'0 0.0
2018-May-16 05:59N 60°52' E 007°07'0 0.9
2018-May-16 05:29N 60°52' E 007°08'510.2
2018-May-16 04:59N 60°57' E 007°07'612.6
2018-May-16 04:30N 61°03' E 007°02'815.6
2018-May-16 04:00N 61°09' E 006°52'815.6
2018-May-16 03:30N 61°10' E 006°36'815.6
2018-May-16 03:00N 61°06' E 006°23'1020.1
2018-May-16 02:30N 61°08' E 006°02'1019.5
2018-May-16 01:59N 61°07' E 005°42'1019.3
2018-May-16 01:29N 61°04' E 005°24'1018.7
2018-May-16 00:58N 61°09' E 005°07'713.9
2018-May-16 00:30N 61°13' E 004°57'918.9
2018-May-16 00:00N 61°15' E 004°37'918.7
2018-May-15 23:30N 61°19' E 004°21'1418.9
2018-May-15 22:46N 61°33' E 004°21'519.3
2018-May-15 22:30N 61°38' E 004°24'1019.3
2018-May-15 22:00N 61°48' E 004°30'1019.1
2018-May-15 21:30N 61°57' E 004°36'918.8
2018-May-15 21:00N 62°06' E 004°43'918.9
2018-May-15 20:30N 62°14' E 004°51'1019.0
2018-May-15 20:00N 62°20' E 005°07'918.5
2018-May-15 19:29N 62°25' E 005°24'918.9
2018-May-15 19:00N 62°27' E 005°43'1018.1
2018-May-15 18:28N 62°24' E 006°04'818.0
2018-May-15 18:00N 62°24' E 006°22'918.9
2018-May-15 17:30N 62°27' E 006°41'815.9
2018-May-15 17:00N 62°23' E 006°55'917.2
2018-May-15 16:29N 62°15' E 007°01'816.4
2018-May-15 16:00N 62°07' E 006°57'5 9.2
2018-May-15 15:30N 62°07' E 007°07'2 4.6
2018-May-15 15:00N 62°06' E 007°12'0 0.0
2018-May-15 14:30N 62°06' E 007°12'0 0.0
2018-May-15 14:00N 62°06' E 007°12'0 0.0
2018-May-15 13:30N 62°06' E 007°12'0 0.0
2018-May-15 13:00N 62°06' E 007°12'0 0.0
2018-May-15 12:30N 62°06' E 007°12'0 0.0
2018-May-15 12:00N 62°06' E 007°12'0 0.0
2018-May-15 11:30N 62°06' E 007°12'0 0.0
2018-May-15 11:00N 62°06' E 007°12'0 0.0
2018-May-15 10:30N 62°06' E 007°12'0 0.0
2018-May-15 10:00N 62°06' E 007°12'0 0.0
2018-May-15 09:30N 62°06' E 007°12'0 0.0
2018-May-15 09:00N 62°06' E 007°12'0 0.0
2018-May-15 08:30N 62°06' E 007°12'0 0.0
2018-May-15 08:00N 62°06' E 007°12'0 0.0
2018-May-15 07:30N 62°06' E 007°12'0 0.0
2018-May-15 07:00N 62°06' E 007°12'0 0.1
2018-May-15 06:30N 62°06' E 007°12'0 0.1
2018-May-15 06:00N 62°06' E 007°12'0 0.0
2018-May-15 05:30N 62°06' E 007°12'1 1.2
2018-May-15 05:00N 62°07' E 007°11'510.9
2018-May-15 04:31N 62°06' E 006°60'611.6
2018-May-15 04:00N 62°12' E 007°02'713.7
2018-May-15 03:29N 62°19' E 006°59'714.2
2018-May-15 03:00N 62°25' E 006°55'714.3
2018-May-15 02:30N 62°27' E 006°40'714.4
2018-May-15 02:00N 62°25' E 006°26'814.7
2018-May-15 01:29N 62°23' E 006°10'714.2
2018-May-15 00:59N 62°27' E 005°57'612.0
2018-May-15 00:30N 62°29' E 005°46'815.8
2018-May-15 00:00N 62°30' E 005°29'815.6
2018-May-14 23:30N 62°27' E 005°14'916.9
2018-May-14 23:00N 62°21' E 005°00'816.5
2018-May-14 22:30N 62°16' E 004°47'816.5
2018-May-14 22:00N 62°10' E 004°34'17818.1
2018-May-14 12:11N 59°13' E 004°11'419.1
2018-May-14 12:00N 59°09' E 004°11'1118.3
2018-May-14 11:24N 58°58' E 004°16'819.4
2018-May-14 11:00N 58°53' E 004°26'1019.3
2018-May-14 10:30N 58°46' E 004°39'1018.9
2018-May-14 10:00N 58°39' E 004°51'1019.2
2018-May-14 09:30N 58°32' E 005°04'1020.1
2018-May-14 09:00N 58°24' E 005°17'1020.7
2018-May-14 08:30N 58°18' E 005°31'1121.1
2018-May-14 08:00N 58°11' E 005°47'1120.8
2018-May-14 07:29N 58°04' E 006°02'1020.4
2018-May-14 07:00N 57°57' E 006°16'1020.4
2018-May-14 06:30N 57°50' E 006°30'1019.7
2018-May-14 06:00N 57°48' E 006°48'1020.8
2018-May-14 05:30N 57°47' E 007°08'1020.6
2018-May-14 05:00N 57°47' E 007°27'1020.2
2018-May-14 04:30N 57°47' E 007°46'1020.1
2018-May-14 04:00N 57°47' E 008°05'1020.0
2018-May-14 03:30N 57°48' E 008°23'1019.8
2018-May-14 03:00N 57°49' E 008°42'1019.6
2018-May-14 02:30N 57°49' E 009°00'4119.2
2018-May-14 00:22N 57°49' E 010°17'719.2
2018-May-14 00:00N 57°49' E 010°30'918.8
2018-May-13 23:30N 57°48' E 010°48'1019.3
2018-May-13 23:00N 57°41' E 011°00'1019.7
2018-May-13 22:30N 57°34' E 011°14'1019.4
2018-May-13 22:00N 57°27' E 011°27'1019.4
2018-May-13 21:30N 57°18' E 011°33'1019.4
2018-May-13 21:00N 57°09' E 011°39'1019.3
2018-May-13 20:30N 56°60' E 011°44'1019.1
2018-May-13 20:00N 56°51' E 011°50'4218.2
2018-May-13 17:43N 56°12' E 012°20'418.9
2018-May-13 17:29N 56°10' E 012°26'817.7
2018-May-13 17:00N 56°05' E 012°37'917.0
2018-May-13 16:30N 55°57' E 012°44'917.4
2018-May-13 16:00N 55°48' E 012°44'611.9
2018-May-13 15:30N 55°43' E 012°38'0 0.0
2018-May-13 15:00N 55°43' E 012°38'0 0.0
2018-May-13 14:29N 55°43' E 012°38'0 0.0
2018-May-13 14:00N 55°43' E 012°38'0 0.0
2018-May-13 13:29N 55°43' E 012°38'0 0.0
2018-May-13 12:59N 55°43' E 012°38'0 0.0
2018-May-13 12:29N 55°43' E 012°38'0 0.0
2018-May-13 11:59N 55°43' E 012°38'0 0.0
2018-May-13 11:30N 55°43' E 012°38'0 0.0
2018-May-13 10:58N 55°43' E 012°38'  

Dump ship's entire track history